Time;durP1;ratioP1;P1;durP2;ratioP2;P2;SDS_P1;SDS_P2;PMS_P1;PMS_P2;Temp;Humidity;BMP_temperature;BMP_pressure;BME280_temperature;BME280_humidity;BME280_pressure;Samples;Min_cycle;Max_cycle;Signal;HPM_P1;HPM_P2
2023/08/12 00:01:09;;;;;;;2.70;0.70;;;;;;;;;;4983441;28;20034;-61
2023/08/12 00:03:36;;;;;;;3.33;0.80;;;;;;;;;;4984533;28;20104;-62
2023/08/12 00:06:05;;;;;;;6.05;0.80;;;;;;;;;;4985828;28;20074;-62
2023/08/12 00:08:32;;;;;;;2.42;0.70;;;;;;;;;;4999842;28;20039;-61
2023/08/12 00:10:58;;;;;;;2.58;0.80;;;;;;;;;;4983340;28;20039;-61
2023/08/12 00:13:25;;;;;;;3.33;0.98;;;;;;;;;;4984289;28;20046;-61
2023/08/12 00:15:53;;;;;;;3.40;0.70;;;;;;;;;;4983928;28;20042;-61
2023/08/12 00:18:39;;;;;;;2.72;0.82;;;;;;;;;;5001196;28;20049;-62
2023/08/12 00:21:09;;;;;;;5.40;1.00;;;;;;;;;;5001159;28;20511;-63
2023/08/12 00:23:39;;;;;;;2.58;0.82;;;;;;;;;;4983355;28;20673;-62
2023/08/12 00:26:05;;;;;;;3.33;0.85;;;;;;;;;;4978168;28;20060;-60
2023/08/12 00:28:32;;;;;;;2.80;0.60;;;;;;;;;;5009094;28;20064;-62
2023/08/12 00:30:59;;;;;;;2.53;0.68;;;;;;;;;;5019188;28;20054;-62
2023/08/12 00:33:26;;;;;;;7.38;0.65;;;;;;;;;;5020107;28;20053;-60
2023/08/12 00:35:52;;;;;;;2.60;0.70;;;;;;;;;;5018353;28;20028;-62
2023/08/12 00:38:19;;;;;;;5.03;0.90;;;;;;;;;;5003013;28;20045;-62
2023/08/12 00:40:45;;;;;;;2.50;0.65;;;;;;;;;;5002847;28;20042;-61
2023/08/12 00:43:12;;;;;;;1.58;0.63;;;;;;;;;;5020725;28;20036;-61
2023/08/12 00:45:39;;;;;;;5.95;0.70;;;;;;;;;;5015679;28;20048;-60
2023/08/12 00:48:09;;;;;;;1.77;0.52;;;;;;;;;;5019002;28;20045;-61
2023/08/12 00:50:37;;;;;;;2.35;0.70;;;;;;;;;;4985204;28;20097;-63
2023/08/12 00:53:05;;;;;;;2.50;0.75;;;;;;;;;;4983071;28;20042;-68
2023/08/12 00:55:33;;;;;;;4.57;0.90;;;;;;;;;;4980692;28;20038;-64
2023/08/12 00:58:00;;;;;;;2.25;0.80;;;;;;;;;;4981846;28;20133;-61
2023/08/12 01:00:26;;;;;;;3.45;0.75;;;;;;;;;;4981439;28;20038;-63
2023/08/12 01:02:54;;;;;;;2.60;0.60;;;;;;;;;;4983111;28;20115;-61
2023/08/12 01:05:21;;;;;;;3.45;0.98;;;;;;;;;;4983106;28;20038;-62
2023/08/12 01:07:48;;;;;;;2.60;0.80;;;;;;;;;;4982881;28;20065;-64
2023/08/12 01:10:16;;;;;;;3.53;0.73;;;;;;;;;;4982898;28;20042;-61
2023/08/12 01:13:09;;;;;;;1.98;0.60;;;;;;;;;;4991765;28;20077;-61
2023/08/12 01:15:36;;;;;;;3.92;0.80;;;;;;;;;;4997063;28;20541;-62
2023/08/12 01:18:03;;;;;;;5.00;0.68;;;;;;;;;;5000940;28;20041;-62
2023/08/12 01:20:30;;;;;;;2.85;0.75;;;;;;;;;;5001946;28;20075;-63
2023/08/12 01:23:17;;;;;;;2.60;0.90;;;;;;;;;;5001765;28;20081;-62
2023/08/12 01:25:43;;;;;;;2.72;0.95;;;;;;;;;;4998671;28;20046;-63
2023/08/12 01:28:10;;;;;;;2.00;0.70;;;;;;;;;;5000057;28;20401;-61
2023/08/12 01:30:43;;;;;;;2.15;0.75;;;;;;;;;;4998180;28;20098;-61
2023/08/12 01:33:20;;;;;;;1.90;0.70;;;;;;;;;;5001196;28;20049;-61
2023/08/12 01:35:58;;;;;;;2.15;0.60;;;;;;;;;;4999616;28;20065;-64
2023/08/12 01:38:27;;;;;;;3.40;0.70;;;;;;;;;;5000061;28;20037;-61
2023/08/12 01:40:54;;;;;;;2.97;0.80;;;;;;;;;;5005593;28;20046;-61
2023/08/12 01:43:21;;;;;;;2.53;0.80;;;;;;;;;;5004267;28;20029;-60
2023/08/12 01:45:48;;;;;;;2.70;0.90;;;;;;;;;;5000017;28;21988;-62
2023/08/12 01:48:14;;;;;;;3.75;0.90;;;;;;;;;;5002923;28;20046;-63
2023/08/12 01:50:46;;;;;;;2.55;0.73;;;;;;;;;;4991357;28;20038;-62
2023/08/12 01:53:13;;;;;;;2.88;0.70;;;;;;;;;;4985742;28;20031;-63
2023/08/12 01:55:40;;;;;;;4.28;0.90;;;;;;;;;;4982894;28;20048;-63
2023/08/12 01:58:06;;;;;;;4.55;1.17;;;;;;;;;;4984692;28;20042;-61
2023/08/12 02:00:33;;;;;;;3.40;1.10;;;;;;;;;;4984141;28;20048;-63
2023/08/12 02:03:00;;;;;;;3.22;0.80;;;;;;;;;;4985691;28;20093;-63
2023/08/12 02:05:27;;;;;;;1.85;0.80;;;;;;;;;;4983928;28;20551;-61
2023/08/12 02:07:53;;;;;;;2.33;0.65;;;;;;;;;;4984682;28;20084;-63
2023/08/12 02:10:20;;;;;;;2.50;0.75;;;;;;;;;;4984759;28;20039;-63
2023/08/12 02:12:47;;;;;;;6.10;1.20;;;;;;;;;;4985006;28;20042;-61
2023/08/12 02:15:13;;;;;;;3.67;0.90;;;;;;;;;;4984898;28;20081;-63
2023/08/12 02:17:40;;;;;;;3.30;1.00;;;;;;;;;;4984246;28;20037;-62
2023/08/12 02:20:07;;;;;;;6.88;1.20;;;;;;;;;;4985830;28;20042;-62
2023/08/12 02:22:33;;;;;;;3.38;0.80;;;;;;;;;;4986042;28;20053;-63
2023/08/12 02:25:00;;;;;;;4.30;1.33;;;;;;;;;;4986301;28;20038;-62
2023/08/12 02:27:27;;;;;;;3.88;1.33;;;;;;;;;;4986372;28;20105;-60
2023/08/12 02:29:53;;;;;;;10.45;1.20;;;;;;;;;;4987007;28;20039;-62
2023/08/12 02:32:20;;;;;;;3.50;0.98;;;;;;;;;;4987602;28;20053;-66
2023/08/12 02:34:46;;;;;;;4.32;1.15;;;;;;;;;;4984772;28;20161;-61
2023/08/12 02:37:13;;;;;;;12.98;1.30;;;;;;;;;;4985295;28;20042;-64
2023/08/12 02:39:40;;;;;;;6.05;1.10;;;;;;;;;;4985563;28;20106;-62
2023/08/12 02:42:06;;;;;;;5.60;1.00;;;;;;;;;;4987519;28;20037;-63
2023/08/12 02:44:33;;;;;;;8.98;1.40;;;;;;;;;;4983422;28;20050;-62
2023/08/12 02:46:59;;;;;;;3.83;1.10;;;;;;;;;;4985483;28;20054;-63
2023/08/12 02:49:27;;;;;;;4.05;1.00;;;;;;;;;;4983547;28;21764;-63
2023/08/12 02:51:54;;;;;;;4.53;1.10;;;;;;;;;;4987094;28;20049;-63
2023/08/12 02:54:20;;;;;;;4.88;0.90;;;;;;;;;;4985077;28;20114;-63
2023/08/12 02:56:47;;;;;;;7.47;1.05;;;;;;;;;;4984883;28;20065;-62
2023/08/12 02:59:14;;;;;;;6.30;1.20;;;;;;;;;;4987222;28;20026;-62
2023/08/12 03:01:41;;;;;;;4.45;0.80;;;;;;;;;;4988596;28;20070;-63
2023/08/12 03:04:08;;;;;;;3.28;0.88;;;;;;;;;;4987118;28;20395;-62
2023/08/12 03:06:35;;;;;;;5.32;0.95;;;;;;;;;;4982698;28;20054;-62
2023/08/12 03:09:02;;;;;;;7.75;1.27;;;;;;;;;;4984731;28;20038;-57
2023/08/12 03:11:28;;;;;;;6.60;1.85;;;;;;;;;;5002649;28;20039;-62
2023/08/12 03:13:55;;;;;;;4.97;2.10;;;;;;;;;;4985213;28;20775;-63
2023/08/12 03:16:22;;;;;;;5.50;2.35;;;;;;;;;;4992771;28;20130;-63
2023/08/12 03:18:48;;;;;;;3.10;1.23;;;;;;;;;;4990104;28;20046;-63
2023/08/12 03:21:15;;;;;;;3.45;0.90;;;;;;;;;;4987820;28;20790;-63
2023/08/12 03:23:41;;;;;;;3.05;1.00;;;;;;;;;;4983667;28;20100;-63
2023/08/12 03:26:08;;;;;;;4.70;1.20;;;;;;;;;;4986849;28;20372;-63
2023/08/12 03:28:35;;;;;;;3.03;1.10;;;;;;;;;;4986982;28;20042;-64
2023/08/12 03:31:02;;;;;;;3.35;1.13;;;;;;;;;;4985224;28;20030;-64
2023/08/12 03:33:29;;;;;;;3.30;1.02;;;;;;;;;;4986964;28;20033;-64
2023/08/12 03:35:55;;;;;;;2.90;1.10;;;;;;;;;;4985339;28;20038;-62
2023/08/12 03:38:22;;;;;;;3.05;0.90;;;;;;;;;;4985689;28;20209;-63
2023/08/12 03:40:48;;;;;;;6.10;1.10;;;;;;;;;;4986154;28;20122;-64
2023/08/12 03:43:15;;;;;;;5.50;0.93;;;;;;;;;;4983951;28;20050;-64
2023/08/12 03:45:42;;;;;;;5.60;1.23;;;;;;;;;;4979350;28;20071;-64
2023/08/12 03:48:09;;;;;;;3.55;1.10;;;;;;;;;;4982043;28;20099;-64
2023/08/12 03:50:36;;;;;;;6.13;1.10;;;;;;;;;;4979033;28;20562;-63
2023/08/12 03:53:03;;;;;;;8.07;1.10;;;;;;;;;;4981340;28;20073;-63
2023/08/12 03:55:35;;;;;;;7.68;1.75;;;;;;;;;;4978952;28;20073;-64
2023/08/12 03:58:02;;;;;;;5.10;0.90;;;;;;;;;;4987490;28;20104;-63
2023/08/12 04:00:29;;;;;;;3.55;0.95;;;;;;;;;;4987352;28;20690;-63
2023/08/12 04:02:56;;;;;;;4.03;0.95;;;;;;;;;;4986908;28;20100;-62
2023/08/12 04:05:22;;;;;;;4.25;0.85;;;;;;;;;;4985301;28;20030;-62
2023/08/12 04:07:49;;;;;;;8.02;1.30;;;;;;;;;;4988041;28;20058;-61
2023/08/12 04:10:15;;;;;;;4.88;1.23;;;;;;;;;;4988754;28;20073;-63
2023/08/12 04:12:42;;;;;;;10.70;2.03;;;;;;;;;;4983950;28;20045;-62
2023/08/12 04:15:09;;;;;;;4.30;1.25;;;;;;;;;;4984491;28;20097;-61
2023/08/12 04:17:36;;;;;;;4.63;1.00;;;;;;;;;;5000625;28;20038;-62
2023/08/12 04:20:05;;;;;;;2.97;1.02;;;;;;;;;;4986870;28;20573;-62
2023/08/12 04:22:32;;;;;;;5.85;1.10;;;;;;;;;;4984178;28;20043;-63
2023/08/12 04:24:59;;;;;;;7.20;1.25;;;;;;;;;;4984698;28;20077;-61
2023/08/12 04:27:25;;;;;;;6.53;1.20;;;;;;;;;;4984079;28;20559;-61
2023/08/12 04:29:52;;;;;;;5.85;1.08;;;;;;;;;;4987306;28;20057;-67
2023/08/12 04:32:18;;;;;;;3.15;0.90;;;;;;;;;;4987170;28;20111;-61
2023/08/12 04:34:46;;;;;;;5.43;1.00;;;;;;;;;;4997969;28;20030;-63
2023/08/12 04:37:13;;;;;;;3.13;1.10;;;;;;;;;;4984514;28;20038;-61
2023/08/12 04:39:40;;;;;;;4.78;1.00;;;;;;;;;;4984973;28;20046;-64
2023/08/12 04:42:06;;;;;;;3.28;1.10;;;;;;;;;;4995114;28;20038;-62
2023/08/12 04:44:33;;;;;;;6.30;1.10;;;;;;;;;;4984861;28;20053;-62
2023/08/12 04:47:00;;;;;;;5.75;1.27;;;;;;;;;;4984514;28;20148;-63
2023/08/12 04:49:27;;;;;;;5.80;1.60;;;;;;;;;;4985332;28;20069;-61
2023/08/12 04:51:53;;;;;;;3.13;1.30;;;;;;;;;;5000868;28;20050;-61
2023/08/12 04:54:20;;;;;;;3.53;1.20;;;;;;;;;;4984141;28;20053;-63
2023/08/12 04:56:47;;;;;;;3.40;1.17;;;;;;;;;;4981513;28;20046;-62
2023/08/12 04:59:13;;;;;;;2.60;1.00;;;;;;;;;;4981939;28;20038;-62
2023/08/12 05:01:40;;;;;;;5.78;1.05;;;;;;;;;;4979067;28;20046;-64
2023/08/12 05:04:07;;;;;;;4.63;1.20;;;;;;;;;;4982922;28;20054;-63
2023/08/12 05:06:33;;;;;;;3.05;1.13;;;;;;;;;;4984159;28;20522;-62
2023/08/12 05:09:00;;;;;;;5.13;1.50;;;;;;;;;;4986239;28;20045;-64
2023/08/12 05:11:26;;;;;;;4.32;1.40;;;;;;;;;;4999088;28;20042;-62
2023/08/12 05:13:53;;;;;;;3.85;0.95;;;;;;;;;;4986012;28;20031;-60
2023/08/12 05:16:20;;;;;;;6.35;1.40;;;;;;;;;;4989600;28;20137;-62
2023/08/12 05:18:46;;;;;;;3.63;1.30;;;;;;;;;;4986957;28;20073;-62
2023/08/12 05:21:13;;;;;;;5.22;1.30;;;;;;;;;;5002350;28;20507;-64
2023/08/12 05:23:39;;;;;;;3.03;1.10;;;;;;;;;;4987785;28;20050;-63
2023/08/12 05:26:06;;;;;;;4.28;1.20;;;;;;;;;;5002121;28;20030;-63
2023/08/12 05:28:33;;;;;;;2.72;0.90;;;;;;;;;;4988075;28;20030;-63
2023/08/12 05:30:59;;;;;;;3.17;1.10;;;;;;;;;;4988583;28;20066;-63
2023/08/12 05:33:26;;;;;;;5.88;1.30;;;;;;;;;;4993189;28;20044;-62
2023/08/12 05:35:54;;;;;;;2.90;1.00;;;;;;;;;;4999491;28;20069;-63
2023/08/12 05:38:21;;;;;;;4.10;1.38;;;;;;;;;;4989234;28;20042;-63
2023/08/12 05:40:47;;;;;;;3.78;1.10;;;;;;;;;;4991308;28;20070;-63
2023/08/12 05:43:14;;;;;;;4.28;1.42;;;;;;;;;;4992790;28;20069;-63
2023/08/12 05:45:40;;;;;;;4.15;1.10;;;;;;;;;;5005066;28;20077;-64
2023/08/12 05:48:08;;;;;;;3.00;1.10;;;;;;;;;;5006218;28;20034;-63
2023/08/12 05:50:35;;;;;;;4.55;1.38;;;;;;;;;;4993009;28;20043;-63
2023/08/12 05:53:01;;;;;;;3.05;1.10;;;;;;;;;;4990837;28;20081;-63
2023/08/12 05:55:28;;;;;;;3.20;1.20;;;;;;;;;;4987839;28;20030;-62
2023/08/12 05:57:54;;;;;;;3.10;1.17;;;;;;;;;;4987111;28;20102;-62
2023/08/12 06:00:21;;;;;;;4.15;1.00;;;;;;;;;;4985983;28;20057;-64
2023/08/12 06:02:48;;;;;;;3.55;1.13;;;;;;;;;;4985955;28;20827;-63
2023/08/12 06:05:15;;;;;;;4.93;0.95;;;;;;;;;;4985795;28;20046;-62
2023/08/12 06:07:41;;;;;;;3.40;0.90;;;;;;;;;;4985285;28;20062;-63
2023/08/12 06:10:08;;;;;;;3.42;1.00;;;;;;;;;;4987643;28;20038;-62
2023/08/12 06:12:35;;;;;;;3.20;1.00;;;;;;;;;;4985850;28;20046;-62
2023/08/12 06:15:02;;;;;;;3.25;1.15;;;;;;;;;;4986799;28;20034;-63
2023/08/12 06:17:28;;;;;;;8.65;1.10;;;;;;;;;;4988999;28;20046;-64
2023/08/12 06:19:55;;;;;;;5.32;0.95;;;;;;;;;;5001753;28;20789;-62
2023/08/12 06:22:22;;;;;;;3.38;1.08;;;;;;;;;;4984892;28;20084;-66
2023/08/12 06:24:48;;;;;;;5.20;1.42;;;;;;;;;;5000288;28;20484;-64
2023/08/12 06:27:15;;;;;;;2.63;0.93;;;;;;;;;;4982867;28;20137;-61
2023/08/12 06:29:41;;;;;;;4.28;1.20;;;;;;;;;;4999682;28;20079;-63
2023/08/12 06:32:08;;;;;;;5.55;1.10;;;;;;;;;;5001432;28;20046;-62
2023/08/12 06:34:35;;;;;;;3.28;1.10;;;;;;;;;;4983401;28;20057;-62
2023/08/12 06:37:02;;;;;;;4.78;0.95;;;;;;;;;;5000954;28;20522;-63
2023/08/12 06:39:28;;;;;;;3.95;1.08;;;;;;;;;;5001125;28;21704;-63
2023/08/12 06:41:55;;;;;;;3.90;1.30;;;;;;;;;;4984972;28;20225;-62
2023/08/12 06:44:22;;;;;;;3.72;1.10;;;;;;;;;;4984398;28;20050;-64
2023/08/12 06:46:48;;;;;;;2.92;1.15;;;;;;;;;;4986228;28;20042;-64
2023/08/12 06:49:16;;;;;;;3.58;1.00;;;;;;;;;;4985165;28;20046;-63
2023/08/12 06:51:42;;;;;;;5.28;1.00;;;;;;;;;;4985966;28;20079;-63
2023/08/12 06:54:09;;;;;;;4.78;1.10;;;;;;;;;;4985887;28;20039;-65
2023/08/12 06:56:35;;;;;;;5.45;1.30;;;;;;;;;;4997652;28;20049;-63
2023/08/12 06:59:02;;;;;;;6.78;1.10;;;;;;;;;;4983876;28;20209;-62
2023/08/12 07:01:29;;;;;;;3.78;1.00;;;;;;;;;;4985391;28;20039;-63
2023/08/12 07:03:55;;;;;;;4.38;1.10;;;;;;;;;;4985810;28;20054;-63
2023/08/12 07:06:22;;;;;;;5.28;1.30;;;;;;;;;;4985761;28;20043;-62
2023/08/12 07:08:49;;;;;;;7.60;1.30;;;;;;;;;;4986963;28;20587;-63
2023/08/12 07:11:16;;;;;;;5.90;1.20;;;;;;;;;;4995313;28;20693;-61
2023/08/12 07:13:46;;;;;;;2.95;0.90;;;;;;;;;;4995481;28;20046;-64
2023/08/12 07:16:12;;;;;;;4.22;1.27;;;;;;;;;;4995331;28;20042;-62
2023/08/12 07:18:39;;;;;;;3.85;1.33;;;;;;;;;;4997230;28;20053;-63
2023/08/12 07:21:05;;;;;;;3.92;1.30;;;;;;;;;;4996312;28;20050;-61
2023/08/12 07:23:52;;;;;;;5.47;1.17;;;;;;;;;;5011141;28;20149;-62
2023/08/12 07:26:19;;;;;;;4.35;1.20;;;;;;;;;;5016138;28;20120;-61
2023/08/12 07:28:45;;;;;;;4.47;1.30;;;;;;;;;;5018875;28;20105;-61
2023/08/12 07:31:12;;;;;;;4.25;1.52;;;;;;;;;;5030092;28;20038;-60
2023/08/12 07:33:39;;;;;;;8.05;1.75;;;;;;;;;;5019964;28;20042;-62
2023/08/12 07:36:05;;;;;;;4.20;1.38;;;;;;;;;;5016220;28;20041;-63
2023/08/12 07:38:32;;;;;;;5.32;1.48;;;;;;;;;;5015612;28;20046;-61
2023/08/12 07:40:59;;;;;;;4.30;1.60;;;;;;;;;;5015096;28;20068;-62
2023/08/12 07:43:25;;;;;;;3.72;1.30;;;;;;;;;;5012740;28;20072;-61
2023/08/12 07:45:52;;;;;;;3.42;1.23;;;;;;;;;;5015735;28;20075;-62
2023/08/12 07:48:20;;;;;;;6.97;1.60;;;;;;;;;;5014408;28;20069;-61
2023/08/12 07:50:49;;;;;;;4.28;1.30;;;;;;;;;;5014390;28;20049;-59
2023/08/12 07:53:16;;;;;;;6.60;1.63;;;;;;;;;;5018395;28;20088;-62
2023/08/12 07:55:43;;;;;;;4.32;1.50;;;;;;;;;;5004344;28;20125;-61
2023/08/12 07:58:10;;;;;;;7.15;1.80;;;;;;;;;;4999923;28;20046;-61
2023/08/12 08:00:36;;;;;;;6.45;1.90;;;;;;;;;;4999949;28;20050;-61
2023/08/12 08:03:03;;;;;;;4.55;1.83;;;;;;;;;;5000221;28;20426;-60
2023/08/12 08:05:29;;;;;;;6.18;1.30;;;;;;;;;;4997615;28;20057;-62
2023/08/12 08:07:56;;;;;;;6.57;1.63;;;;;;;;;;4999568;28;20046;-62
2023/08/12 08:10:23;;;;;;;4.05;1.42;;;;;;;;;;4999525;28;20089;-61
2023/08/12 08:12:50;;;;;;;3.67;1.50;;;;;;;;;;4997637;28;20050;-62
2023/08/12 08:15:16;;;;;;;4.57;1.40;;;;;;;;;;4995870;28;20042;-62
2023/08/12 08:17:43;;;;;;;4.55;1.35;;;;;;;;;;4996376;28;20161;-63
2023/08/12 08:20:10;;;;;;;3.83;1.33;;;;;;;;;;4998537;28;20041;-62
2023/08/12 08:22:37;;;;;;;6.10;1.17;;;;;;;;;;4988776;28;20093;-62
2023/08/12 08:25:04;;;;;;;3.83;1.30;;;;;;;;;;4987376;28;20118;-61
2023/08/12 08:27:31;;;;;;;6.43;1.45;;;;;;;;;;5002569;28;20304;-62
2023/08/12 08:29:58;;;;;;;3.75;1.20;;;;;;;;;;4987847;28;20042;-61
2023/08/12 08:32:25;;;;;;;4.22;1.33;;;;;;;;;;4987443;28;20543;-61
2023/08/12 08:34:52;;;;;;;5.07;1.20;;;;;;;;;;4984896;28;20141;-64
2023/08/12 08:37:18;;;;;;;3.92;1.40;;;;;;;;;;4985914;28;20049;-62
2023/08/12 08:39:45;;;;;;;3.95;1.35;;;;;;;;;;4984065;28;20589;-62
2023/08/12 08:42:12;;;;;;;3.60;1.20;;;;;;;;;;4982346;28;20108;-61
2023/08/12 08:44:44;;;;;;;5.97;1.38;;;;;;;;;;4983587;28;20081;-61
2023/08/12 08:47:12;;;;;;;4.63;1.60;;;;;;;;;;4984900;28;20034;-62
2023/08/12 08:49:39;;;;;;;4.63;1.48;;;;;;;;;;4984538;28;20051;-62
2023/08/12 08:52:06;;;;;;;3.70;1.48;;;;;;;;;;4986261;28;20074;-61
2023/08/12 08:54:32;;;;;;;4.68;1.52;;;;;;;;;;4984066;28;20042;-62
2023/08/12 08:56:59;;;;;;;8.57;1.60;;;;;;;;;;5001060;28;20043;-63
2023/08/12 08:59:26;;;;;;;4.53;1.38;;;;;;;;;;4984020;28;20950;-62
2023/08/12 09:01:54;;;;;;;3.75;1.50;;;;;;;;;;4984481;28;20046;-61
2023/08/12 09:04:22;;;;;;;5.90;1.48;;;;;;;;;;4983925;28;20042;-62
2023/08/12 09:06:50;;;;;;;5.63;1.70;;;;;;;;;;4984163;28;20070;-62
2023/08/12 09:09:17;;;;;;;5.50;1.40;;;;;;;;;;4984810;28;20042;-63
2023/08/12 09:11:45;;;;;;;4.20;1.50;;;;;;;;;;4983024;28;20069;-62
2023/08/12 09:14:13;;;;;;;7.15;1.50;;;;;;;;;;4984921;28;20044;-61
2023/08/12 09:16:40;;;;;;;4.03;1.42;;;;;;;;;;4983143;28;20045;-63
2023/08/12 09:19:06;;;;;;;3.92;1.50;;;;;;;;;;4983429;28;20038;-62
2023/08/12 09:21:33;;;;;;;4.25;1.33;;;;;;;;;;4982934;28;20930;-63
2023/08/12 09:24:06;;;;;;;4.07;1.40;;;;;;;;;;4981316;28;20554;-62
2023/08/12 09:26:32;;;;;;;;;;;;;;;;;;4982444;28;20093;-62
2023/08/12 09:29:00;;;;;;;4.82;1.30;;;;;;;;;;4982751;28;19921;-62
2023/08/12 09:31:28;;;;;;;3.53;1.40;;;;;;;;;;4983353;28;20093;-61
2023/08/12 09:34:06;;;;;;;3.70;1.20;;;;;;;;;;4981175;28;20111;-61
2023/08/12 09:36:34;;;;;;;3.80;1.20;;;;;;;;;;4981998;28;20046;-62
2023/08/12 09:39:00;;;;;;;5.22;1.33;;;;;;;;;;4982214;28;20053;-60
2023/08/12 09:41:30;;;;;;;5.75;1.60;;;;;;;;;;4982160;28;20077;-63
2023/08/12 09:43:57;;;;;;;5.72;1.20;;;;;;;;;;4981039;28;20049;-62
2023/08/12 09:46:24;;;;;;;3.38;1.42;;;;;;;;;;4981405;28;20597;-63
2023/08/12 09:48:54;;;;;;;3.42;1.17;;;;;;;;;;4983166;28;20054;-62
2023/08/12 09:51:22;;;;;;;6.15;1.30;;;;;;;;;;4982188;28;20054;-60
2023/08/12 09:53:49;;;;;;;4.25;1.55;;;;;;;;;;4981473;28;20073;-61
2023/08/12 09:56:18;;;;;;;3.17;1.08;;;;;;;;;;4994620;28;20046;-62
2023/08/12 09:58:48;;;;;;;4.13;1.30;;;;;;;;;;4980566;28;20048;-67
2023/08/12 10:01:17;;;;;;;4.05;1.42;;;;;;;;;;4985261;28;20038;-61
2023/08/12 10:03:46;;;;;;;6.75;1.40;;;;;;;;;;4999847;28;20050;-62
2023/08/12 10:06:13;;;;;;;3.53;1.30;;;;;;;;;;5000581;28;20094;-62
2023/08/12 10:08:40;;;;;;;4.55;1.40;;;;;;;;;;4985457;28;20540;-61
2023/08/12 10:11:07;;;;;;;4.22;1.13;;;;;;;;;;4985590;28;20061;-61
2023/08/12 10:13:35;;;;;;;4.15;1.02;;;;;;;;;;4999776;28;20506;-62
2023/08/12 10:16:01;;;;;;;3.17;0.95;;;;;;;;;;4986871;28;20038;-62
2023/08/12 10:18:29;;;;;;;4.00;1.10;;;;;;;;;;4984557;28;20058;-60
2023/08/12 10:20:58;;;;;;;3.67;1.17;;;;;;;;;;4966847;28;20049;-62
2023/08/12 10:23:25;;;;;;;4.38;1.20;;;;;;;;;;4985262;28;20130;-61
2023/08/12 10:25:55;;;;;;;4.63;1.33;;;;;;;;;;4986259;28;20463;-63
2023/08/12 10:28:22;;;;;;;3.42;1.23;;;;;;;;;;4983487;28;20054;-64
2023/08/12 10:30:48;;;;;;;2.80;1.05;;;;;;;;;;4986302;28;20491;-63
2023/08/12 10:33:18;;;;;;;9.50;1.63;;;;;;;;;;4984305;28;20038;-62
2023/08/12 10:35:46;;;;;;;4.15;1.33;;;;;;;;;;4985048;28;20039;-63
2023/08/12 10:38:22;;;;;;;4.10;1.30;;;;;;;;;;4986912;28;20098;-62
2023/08/12 10:40:48;;;;;;;3.05;1.10;;;;;;;;;;5000001;28;20058;-63
2023/08/12 10:43:15;;;;;;;4.47;1.00;;;;;;;;;;4984996;28;20431;-63
2023/08/12 10:45:43;;;;;;;4.38;1.15;;;;;;;;;;5000422;28;20057;-63
2023/08/12 10:48:16;;;;;;;5.70;1.20;;;;;;;;;;4989773;28;20047;-61
2023/08/12 10:50:46;;;;;;;3.38;1.20;;;;;;;;;;4987814;28;21426;-62
2023/08/12 10:53:49;;;;;;;4.13;1.20;;;;;;;;;;4995015;28;20065;-62
2023/08/12 10:56:16;;;;;;;4.93;1.20;;;;;;;;;;4970718;28;20081;-63
2023/08/12 10:58:46;;;;;;;6.03;1.20;;;;;;;;;;4992955;28;20267;-63
2023/08/12 11:01:20;;;;;;;7.43;1.33;;;;;;;;;;4995702;28;20049;-63
2023/08/12 11:03:47;;;;;;;3.80;1.33;;;;;;;;;;4996701;28;20042;-61
2023/08/12 11:06:14;;;;;;;6.07;1.40;;;;;;;;;;4996271;28;20077;-63
2023/08/12 11:08:47;;;;;;;6.38;1.42;;;;;;;;;;4996618;28;20117;-60
2023/08/12 11:11:21;;;;;;;4.88;1.30;;;;;;;;;;4995628;28;20038;-63
2023/08/12 11:14:07;;;;;;;7.53;1.55;;;;;;;;;;4995110;28;20043;-60
2023/08/12 11:16:37;;;;;;;3.83;1.33;;;;;;;;;;4993908;28;20073;-62
2023/08/12 11:19:04;;;;;;;5.78;1.40;;;;;;;;;;4997991;28;20045;-63
2023/08/12 11:21:31;;;;;;;7.30;1.30;;;;;;;;;;4995354;28;20164;-62
2023/08/12 11:23:58;;;;;;;4.45;1.48;;;;;;;;;;4997827;28;20133;-61
2023/08/12 11:26:24;;;;;;;5.82;1.58;;;;;;;;;;4996090;28;20045;-61
2023/08/12 11:28:51;;;;;;;6.93;1.80;;;;;;;;;;4996226;28;20146;-60
2023/08/12 11:31:19;;;;;;;6.95;1.52;;;;;;;;;;4996373;28;20034;-61
2023/08/12 11:33:46;;;;;;;4.95;1.30;;;;;;;;;;4994541;28;20042;-61
2023/08/12 11:36:12;;;;;;;5.82;1.38;;;;;;;;;;4996173;28;20042;-62
2023/08/12 11:38:39;;;;;;;4.25;1.48;;;;;;;;;;4995614;28;20077;-63
2023/08/12 11:41:05;;;;;;;5.05;1.58;;;;;;;;;;4995907;28;20134;-63
2023/08/12 11:43:35;;;;;;;3.95;1.38;;;;;;;;;;4996290;28;20630;-63
2023/08/12 11:46:02;;;;;;;5.18;1.40;;;;;;;;;;4995138;28;20049;-60
2023/08/12 11:48:28;;;;;;;4.32;1.30;;;;;;;;;;4992909;28;20038;-62
2023/08/12 11:50:56;;;;;;;3.83;1.25;;;;;;;;;;4996253;28;20118;-61
2023/08/12 11:53:22;;;;;;;5.57;1.30;;;;;;;;;;4997576;28;20042;-62
2023/08/12 11:55:49;;;;;;;5.32;1.40;;;;;;;;;;4996845;28;20049;-60
2023/08/12 11:58:20;;;;;;;6.30;1.48;;;;;;;;;;4997712;28;20048;-62
2023/08/12 12:00:50;;;;;;;4.82;1.42;;;;;;;;;;4998159;28;20034;-60
2023/08/12 12:03:17;;;;;;;4.30;1.10;;;;;;;;;;4998438;28;20038;-62
2023/08/12 12:05:47;;;;;;;4.20;1.40;;;;;;;;;;4996162;28;20098;-63
2023/08/12 12:08:14;;;;;;;3.00;1.30;;;;;;;;;;4998607;28;20768;-62
2023/08/12 12:10:41;;;;;;;4.05;1.27;;;;;;;;;;4997524;28;20038;-61
2023/08/12 12:13:10;;;;;;;4.55;1.10;;;;;;;;;;4999728;28;20117;-63
2023/08/12 12:15:43;;;;;;;3.75;1.30;;;;;;;;;;4999233;28;20039;-63
2023/08/12 12:18:29;;;;;;;3.60;1.23;;;;;;;;;;5020106;28;20131;-64
2023/08/12 12:20:56;;;;;;;4.63;1.30;;;;;;;;;;5021695;28;20653;-63
2023/08/12 12:23:23;;;;;;;3.70;1.40;;;;;;;;;;5020249;28;20634;-63
2023/08/12 12:25:50;;;;;;;6.32;1.33;;;;;;;;;;5021353;28;20049;-62
2023/08/12 12:28:16;;;;;;;5.18;1.35;;;;;;;;;;5018983;28;20037;-62
2023/08/12 12:30:43;;;;;;;5.85;1.60;;;;;;;;;;5015296;28;20049;-62
2023/08/12 12:33:09;;;;;;;4.22;1.52;;;;;;;;;;5019036;28;20038;-61
2023/08/12 12:35:56;;;;;;;8.75;1.60;;;;;;;;;;5001749;28;20098;-60
2023/08/12 12:38:22;;;;;;;5.95;1.70;;;;;;;;;;5011690;28;20503;-63
2023/08/12 12:40:49;;;;;;;5.57;1.50;;;;;;;;;;5015553;28;20045;-63
2023/08/12 12:43:15;;;;;;;5.70;1.55;;;;;;;;;;5015528;28;20048;-61
2023/08/12 12:45:45;;;;;;;7.50;1.42;;;;;;;;;;5011686;28;20645;-62
2023/08/12 12:48:12;;;;;;;8.73;1.52;;;;;;;;;;5014590;28;20554;-60
2023/08/12 12:50:38;;;;;;;6.30;1.60;;;;;;;;;;5013106;28;20065;-60
2023/08/12 12:53:05;;;;;;;6.20;1.55;;;;;;;;;;5013746;28;20046;-62
2023/08/12 12:55:31;;;;;;;7.10;1.95;;;;;;;;;;5007470;28;20088;-63
2023/08/12 12:57:58;;;;;;;8.65;1.70;;;;;;;;;;5008123;28;20072;-60
2023/08/12 13:00:25;;;;;;;7.15;1.50;;;;;;;;;;5008665;28;20038;-63
2023/08/12 13:02:52;;;;;;;5.25;1.58;;;;;;;;;;5009549;28;20042;-61
2023/08/12 13:05:19;;;;;;;4.95;1.50;;;;;;;;;;5010185;28;20415;-61
2023/08/12 13:07:45;;;;;;;3.88;1.30;;;;;;;;;;5006982;28;20046;-63
2023/08/12 13:10:12;;;;;;;4.15;1.55;;;;;;;;;;5007191;28;20045;-66
2023/08/12 13:12:39;;;;;;;5.10;1.63;;;;;;;;;;5004888;28;20073;-59
2023/08/12 13:15:06;;;;;;;6.10;1.73;;;;;;;;;;4996336;28;20126;-62
2023/08/12 13:17:33;;;;;;;3.67;1.17;;;;;;;;;;4995960;28;20042;-61
2023/08/12 13:20:00;;;;;;;5.80;1.38;;;;;;;;;;4993918;28;20046;-60
2023/08/12 13:22:26;;;;;;;7.28;1.27;;;;;;;;;;4996423;28;20049;-61
2023/08/12 13:24:53;;;;;;;9.30;1.60;;;;;;;;;;4995886;28;20048;-63
2023/08/12 13:27:19;;;;;;;3.30;1.10;;;;;;;;;;4995481;28;20065;-60
2023/08/12 13:29:46;;;;;;;4.53;1.35;;;;;;;;;;4991762;28;20046;-59
2023/08/12 13:32:13;;;;;;;3.63;1.40;;;;;;;;;;4992036;28;20065;-61
2023/08/12 13:34:39;;;;;;;5.47;1.33;;;;;;;;;;4993615;28;20451;-59
2023/08/12 13:37:06;;;;;;;5.55;1.30;;;;;;;;;;4996939;28;20577;-62
2023/08/12 13:39:32;;;;;;;4.00;1.20;;;;;;;;;;4999402;28;20058;-61
2023/08/12 13:41:59;;;;;;;3.70;1.38;;;;;;;;;;4998913;28;20097;-60
2023/08/12 13:44:25;;;;;;;4.97;1.00;;;;;;;;;;4995817;28;20058;-62
2023/08/12 13:46:52;;;;;;;3.08;0.93;;;;;;;;;;4999187;28;20122;-62
2023/08/12 13:49:19;;;;;;;3.88;1.20;;;;;;;;;;5002606;28;20042;-62
2023/08/12 13:51:45;;;;;;;4.15;1.33;;;;;;;;;;4996954;28;20049;-62
2023/08/12 13:54:12;;;;;;;6.75;1.38;;;;;;;;;;4997656;28;20038;-62
2023/08/12 13:56:39;;;;;;;3.95;1.13;;;;;;;;;;4997591;28;20061;-60
2023/08/12 13:59:05;;;;;;;10.73;1.67;;;;;;;;;;4999397;28;20072;-63
2023/08/12 14:01:32;;;;;;;15.45;1.70;;;;;;;;;;4999607;28;20049;-65
2023/08/12 14:03:58;;;;;;;3.10;1.08;;;;;;;;;;5001167;28;20050;-61
2023/08/12 14:06:25;;;;;;;3.83;1.13;;;;;;;;;;5002241;28;20038;-62
2023/08/12 14:08:51;;;;;;;3.30;1.30;;;;;;;;;;5001207;28;20117;-64
2023/08/12 14:11:20;;;;;;;4.18;0.98;;;;;;;;;;5023547;28;20288;-59
2023/08/12 14:13:47;;;;;;;5.18;1.40;;;;;;;;;;5003283;28;20114;-62
2023/08/12 14:16:13;;;;;;;3.65;1.20;;;;;;;;;;5005355;28;20121;-62
2023/08/12 14:18:40;;;;;;;2.90;1.08;;;;;;;;;;5004279;28;20039;-61
2023/08/12 14:21:07;;;;;;;5.30;1.20;;;;;;;;;;4993885;28;20061;-57
2023/08/12 14:23:33;;;;;;;3.88;1.15;;;;;;;;;;4994942;28;20042;-56
2023/08/12 14:26:00;;;;;;;5.30;1.20;;;;;;;;;;4993152;28;20403;-55
2023/08/12 14:28:27;;;;;;;5.03;1.33;;;;;;;;;;4991994;28;20058;-57
2023/08/12 14:30:54;;;;;;;5.28;1.08;;;;;;;;;;4996867;28;20045;-63
2023/08/12 14:33:24;;;;;;;7.60;1.02;;;;;;;;;;4994679;28;20035;-57
2023/08/12 14:35:52;;;;;;;5.75;1.00;;;;;;;;;;4991025;28;20058;-56
2023/08/12 14:38:19;;;;;;;5.63;1.33;;;;;;;;;;4994112;28;20719;-54
2023/08/12 14:40:49;;;;;;;3.97;1.27;;;;;;;;;;4992125;28;20085;-58
2023/08/12 14:43:17;;;;;;;3.20;1.20;;;;;;;;;;4995615;28;20129;-55
2023/08/12 14:45:46;;;;;;;3.42;1.10;;;;;;;;;;5003057;28;20061;-58